sensor_id;sensor_type;location;lat;lon;timestamp;P1;durP1;ratioP1;P2;durP2;ratioP2
7961;SDS011;4026;43.652;24.906;2023-04-25T00:00:15;3.77;;;2.27;;
7961;SDS011;4026;43.652;24.906;2023-04-25T00:02:42;3.13;;;2.03;;
7961;SDS011;4026;43.652;24.906;2023-04-25T00:05:09;2.90;;;2.17;;
7961;SDS011;4026;43.652;24.906;2023-04-25T00:07:36;4.00;;;3.07;;
7961;SDS011;4026;43.652;24.906;2023-04-25T00:10:05;4.17;;;2.73;;
7961;SDS011;4026;43.652;24.906;2023-04-25T00:12:33;2.30;;;1.70;;
7961;SDS011;4026;43.652;24.906;2023-04-25T00:15:01;2.40;;;2.20;;
7961;SDS011;4026;43.652;24.906;2023-04-25T00:17:27;2.50;;;1.77;;
7961;SDS011;4026;43.652;24.906;2023-04-25T00:19:54;2.17;;;1.73;;
7961;SDS011;4026;43.652;24.906;2023-04-25T00:22:23;2.00;;;1.47;;
7961;SDS011;4026;43.652;24.906;2023-04-25T00:24:50;2.23;;;1.70;;
7961;SDS011;4026;43.652;24.906;2023-04-25T00:27:19;3.30;;;1.67;;
7961;SDS011;4026;43.652;24.906;2023-04-25T00:29:46;4.53;;;1.70;;
7961;SDS011;4026;43.652;24.906;2023-04-25T00:32:13;2.90;;;1.77;;
7961;SDS011;4026;43.652;24.906;2023-04-25T00:34:40;2.20;;;1.97;;
7961;SDS011;4026;43.652;24.906;2023-04-25T00:37:06;3.00;;;2.00;;
7961;SDS011;4026;43.652;24.906;2023-04-25T00:39:33;2.37;;;1.67;;
7961;SDS011;4026;43.652;24.906;2023-04-25T00:42:00;2.30;;;1.77;;
7961;SDS011;4026;43.652;24.906;2023-04-25T00:44:30;3.63;;;1.87;;
7961;SDS011;4026;43.652;24.906;2023-04-25T00:46:58;1.33;;;1.13;;
7961;SDS011;4026;43.652;24.906;2023-04-25T00:49:26;2.70;;;1.30;;
7961;SDS011;4026;43.652;24.906;2023-04-25T00:51:53;1.77;;;1.30;;
7961;SDS011;4026;43.652;24.906;2023-04-25T00:54:21;2.17;;;1.47;;
7961;SDS011;4026;43.652;24.906;2023-04-25T00:56:48;1.30;;;1.20;;
7961;SDS011;4026;43.652;24.906;2023-04-25T00:59:15;1.47;;;1.37;;
7961;SDS011;4026;43.652;24.906;2023-04-25T01:01:44;1.47;;;0.97;;
7961;SDS011;4026;43.652;24.906;2023-04-25T01:04:11;2.13;;;1.47;;
7961;SDS011;4026;43.652;24.906;2023-04-25T01:06:41;2.47;;;1.30;;
7961;SDS011;4026;43.652;24.906;2023-04-25T01:09:08;1.70;;;1.60;;
7961;SDS011;4026;43.652;24.906;2023-04-25T01:11:36;2.23;;;1.63;;
7961;SDS011;4026;43.652;24.906;2023-04-25T01:14:05;2.13;;;1.80;;
7961;SDS011;4026;43.652;24.906;2023-04-25T01:16:32;2.60;;;1.40;;
7961;SDS011;4026;43.652;24.906;2023-04-25T01:19:00;2.10;;;1.50;;
7961;SDS011;4026;43.652;24.906;2023-04-25T01:21:29;2.17;;;1.57;;
7961;SDS011;4026;43.652;24.906;2023-04-25T01:23:56;2.37;;;1.40;;
7961;SDS011;4026;43.652;24.906;2023-04-25T01:26:23;2.10;;;1.57;;
7961;SDS011;4026;43.652;24.906;2023-04-25T01:28:51;1.97;;;1.63;;
7961;SDS011;4026;43.652;24.906;2023-04-25T01:31:18;2.13;;;1.47;;
7961;SDS011;4026;43.652;24.906;2023-04-25T01:33:46;1.40;;;1.30;;
7961;SDS011;4026;43.652;24.906;2023-04-25T01:36:13;2.33;;;1.70;;
7961;SDS011;4026;43.652;24.906;2023-04-25T01:38:42;2.30;;;1.50;;
7961;SDS011;4026;43.652;24.906;2023-04-25T01:41:11;1.93;;;1.50;;
7961;SDS011;4026;43.652;24.906;2023-04-25T01:43:38;2.10;;;1.43;;
7961;SDS011;4026;43.652;24.906;2023-04-25T01:46:05;1.40;;;1.30;;
7961;SDS011;4026;43.652;24.906;2023-04-25T01:48:32;1.73;;;1.27;;
7961;SDS011;4026;43.652;24.906;2023-04-25T01:50:59;2.20;;;1.47;;
7961;SDS011;4026;43.652;24.906;2023-04-25T01:53:26;1.23;;;1.03;;
7961;SDS011;4026;43.652;24.906;2023-04-25T01:55:54;1.40;;;1.30;;
7961;SDS011;4026;43.652;24.906;2023-04-25T01:58:21;1.67;;;1.27;;
7961;SDS011;4026;43.652;24.906;2023-04-25T02:00:48;1.27;;;1.17;;
7961;SDS011;4026;43.652;24.906;2023-04-25T02:03:15;2.67;;;1.37;;
7961;SDS011;4026;43.652;24.906;2023-04-25T02:05:41;1.33;;;1.20;;
7961;SDS011;4026;43.652;24.906;2023-04-25T02:08:08;1.40;;;1.20;;
7961;SDS011;4026;43.652;24.906;2023-04-25T02:10:36;1.47;;;1.00;;
7961;SDS011;4026;43.652;24.906;2023-04-25T02:13:04;1.20;;;1.10;;
7961;SDS011;4026;43.652;24.906;2023-04-25T02:15:31;1.70;;;1.37;;
7961;SDS011;4026;43.652;24.906;2023-04-25T02:17:58;1.67;;;1.10;;
7961;SDS011;4026;43.652;24.906;2023-04-25T02:20:26;1.73;;;1.30;;
7961;SDS011;4026;43.652;24.906;2023-04-25T02:22:53;1.87;;;1.40;;
7961;SDS011;4026;43.652;24.906;2023-04-25T02:25:20;2.70;;;1.20;;
7961;SDS011;4026;43.652;24.906;2023-04-25T02:27:48;2.83;;;1.23;;
7961;SDS011;4026;43.652;24.906;2023-04-25T02:30:17;3.50;;;1.83;;
7961;SDS011;4026;43.652;24.906;2023-04-25T02:32:44;2.30;;;1.40;;
7961;SDS011;4026;43.652;24.906;2023-04-25T02:35:11;1.33;;;1.13;;
7961;SDS011;4026;43.652;24.906;2023-04-25T02:37:39;1.80;;;1.37;;
7961;SDS011;4026;43.652;24.906;2023-04-25T02:40:06;1.30;;;1.07;;
7961;SDS011;4026;43.652;24.906;2023-04-25T02:42:34;2.13;;;1.23;;
7961;SDS011;4026;43.652;24.906;2023-04-25T02:45:01;1.50;;;1.30;;
7961;SDS011;4026;43.652;24.906;2023-04-25T02:47:30;1.60;;;1.40;;
7961;SDS011;4026;43.652;24.906;2023-04-25T02:49:57;1.50;;;1.20;;
7961;SDS011;4026;43.652;24.906;2023-04-25T02:52:24;1.93;;;1.30;;
7961;SDS011;4026;43.652;24.906;2023-04-25T02:54:51;1.83;;;1.10;;
7961;SDS011;4026;43.652;24.906;2023-04-25T02:57:17;3.73;;;1.40;;
7961;SDS011;4026;43.652;24.906;2023-04-25T02:59:44;2.30;;;1.37;;
7961;SDS011;4026;43.652;24.906;2023-04-25T03:02:11;1.70;;;1.30;;
7961;SDS011;4026;43.652;24.906;2023-04-25T03:04:39;1.40;;;1.03;;
7961;SDS011;4026;43.652;24.906;2023-04-25T03:07:06;4.10;;;1.37;;
7961;SDS011;4026;43.652;24.906;2023-04-25T03:09:33;1.20;;;1.07;;
7961;SDS011;4026;43.652;24.906;2023-04-25T03:12:00;1.60;;;1.30;;
7961;SDS011;4026;43.652;24.906;2023-04-25T03:14:27;1.83;;;1.27;;
7961;SDS011;4026;43.652;24.906;2023-04-25T03:16:54;0.97;;;0.97;;
7961;SDS011;4026;43.652;24.906;2023-04-25T03:19:21;1.90;;;1.10;;
7961;SDS011;4026;43.652;24.906;2023-04-25T03:21:49;1.10;;;0.90;;
7961;SDS011;4026;43.652;24.906;2023-04-25T03:24:16;1.43;;;1.17;;
7961;SDS011;4026;43.652;24.906;2023-04-25T03:26:42;1.30;;;0.83;;
7961;SDS011;4026;43.652;24.906;2023-04-25T03:29:09;1.07;;;0.97;;
7961;SDS011;4026;43.652;24.906;2023-04-25T03:31:36;1.87;;;1.13;;
7961;SDS011;4026;43.652;24.906;2023-04-25T03:34:03;1.10;;;0.90;;
7961;SDS011;4026;43.652;24.906;2023-04-25T03:36:30;0.93;;;0.67;;
7961;SDS011;4026;43.652;24.906;2023-04-25T03:38:59;1.10;;;0.83;;
7961;SDS011;4026;43.652;24.906;2023-04-25T03:41:26;2.87;;;1.17;;
7961;SDS011;4026;43.652;24.906;2023-04-25T03:43:53;1.20;;;1.03;;
7961;SDS011;4026;43.652;24.906;2023-04-25T03:46:19;2.43;;;1.00;;
7961;SDS011;4026;43.652;24.906;2023-04-25T03:48:46;1.37;;;1.23;;
7961;SDS011;4026;43.652;24.906;2023-04-25T03:51:13;0.90;;;0.67;;
7961;SDS011;4026;43.652;24.906;2023-04-25T03:53:40;1.47;;;1.30;;
7961;SDS011;4026;43.652;24.906;2023-04-25T03:56:09;1.50;;;1.20;;
7961;SDS011;4026;43.652;24.906;2023-04-25T03:58:35;1.07;;;0.83;;
7961;SDS011;4026;43.652;24.906;2023-04-25T04:01:02;2.23;;;1.40;;
7961;SDS011;4026;43.652;24.906;2023-04-25T04:03:32;1.80;;;1.30;;
7961;SDS011;4026;43.652;24.906;2023-04-25T04:05:59;1.43;;;1.10;;
7961;SDS011;4026;43.652;24.906;2023-04-25T04:08:26;2.93;;;1.13;;
7961;SDS011;4026;43.652;24.906;2023-04-25T04:10:53;1.47;;;1.23;;
7961;SDS011;4026;43.652;24.906;2023-04-25T04:13:21;1.43;;;1.27;;
7961;SDS011;4026;43.652;24.906;2023-04-25T04:15:48;2.30;;;1.83;;
7961;SDS011;4026;43.652;24.906;2023-04-25T04:18:14;1.07;;;1.00;;
7961;SDS011;4026;43.652;24.906;2023-04-25T04:20:41;1.70;;;1.27;;
7961;SDS011;4026;43.652;24.906;2023-04-25T04:23:08;1.70;;;1.50;;
7961;SDS011;4026;43.652;24.906;2023-04-25T04:25:35;1.70;;;1.10;;
7961;SDS011;4026;43.652;24.906;2023-04-25T04:28:02;1.63;;;1.30;;
7961;SDS011;4026;43.652;24.906;2023-04-25T04:30:31;1.93;;;1.30;;
7961;SDS011;4026;43.652;24.906;2023-04-25T04:33:01;1.00;;;0.90;;
7961;SDS011;4026;43.652;24.906;2023-04-25T04:35:28;1.17;;;1.07;;
7961;SDS011;4026;43.652;24.906;2023-04-25T04:37:55;1.40;;;1.30;;
7961;SDS011;4026;43.652;24.906;2023-04-25T04:40:22;1.67;;;1.33;;
7961;SDS011;4026;43.652;24.906;2023-04-25T04:42:49;1.53;;;1.13;;
7961;SDS011;4026;43.652;24.906;2023-04-25T04:45:17;1.77;;;1.10;;
7961;SDS011;4026;43.652;24.906;2023-04-25T04:47:45;1.03;;;0.87;;
7961;SDS011;4026;43.652;24.906;2023-04-25T04:50:13;1.00;;;0.77;;
7961;SDS011;4026;43.652;24.906;2023-04-25T04:52:41;1.40;;;1.07;;
7961;SDS011;4026;43.652;24.906;2023-04-25T04:55:08;1.80;;;1.40;;
7961;SDS011;4026;43.652;24.906;2023-04-25T04:57:35;2.30;;;1.90;;
7961;SDS011;4026;43.652;24.906;2023-04-25T05:00:04;1.70;;;1.43;;
7961;SDS011;4026;43.652;24.906;2023-04-25T05:02:35;1.03;;;0.97;;
7961;SDS011;4026;43.652;24.906;2023-04-25T05:05:04;1.83;;;1.03;;
7961;SDS011;4026;43.652;24.906;2023-04-25T05:07:31;1.47;;;1.10;;
7961;SDS011;4026;43.652;24.906;2023-04-25T05:09:58;1.50;;;1.07;;
7961;SDS011;4026;43.652;24.906;2023-04-25T05:12:24;1.67;;;1.00;;
7961;SDS011;4026;43.652;24.906;2023-04-25T05:14:51;1.30;;;1.13;;
7961;SDS011;4026;43.652;24.906;2023-04-25T05:17:18;1.30;;;1.20;;
7961;SDS011;4026;43.652;24.906;2023-04-25T05:19:45;1.07;;;0.97;;
7961;SDS011;4026;43.652;24.906;2023-04-25T05:22:13;2.53;;;1.50;;
7961;SDS011;4026;43.652;24.906;2023-04-25T05:24:40;1.47;;;1.10;;
7961;SDS011;4026;43.652;24.906;2023-04-25T05:27:06;1.47;;;0.80;;
7961;SDS011;4026;43.652;24.906;2023-04-25T05:29:33;1.40;;;0.93;;
7961;SDS011;4026;43.652;24.906;2023-04-25T05:32:00;1.90;;;1.30;;
7961;SDS011;4026;43.652;24.906;2023-04-25T05:34:27;1.30;;;1.00;;
7961;SDS011;4026;43.652;24.906;2023-04-25T05:36:54;1.10;;;1.00;;
7961;SDS011;4026;43.652;24.906;2023-04-25T05:39:22;1.87;;;1.20;;
7961;SDS011;4026;43.652;24.906;2023-04-25T05:41:49;1.20;;;0.90;;
7961;SDS011;4026;43.652;24.906;2023-04-25T05:44:16;1.33;;;1.00;;
7961;SDS011;4026;43.652;24.906;2023-04-25T05:46:42;1.20;;;1.10;;
7961;SDS011;4026;43.652;24.906;2023-04-25T05:49:09;1.00;;;0.90;;
7961;SDS011;4026;43.652;24.906;2023-04-25T05:51:36;1.50;;;0.97;;
7961;SDS011;4026;43.652;24.906;2023-04-25T05:54:03;1.33;;;1.07;;
7961;SDS011;4026;43.652;24.906;2023-04-25T05:56:31;1.70;;;1.10;;
7961;SDS011;4026;43.652;24.906;2023-04-25T05:58:58;1.20;;;0.97;;
7961;SDS011;4026;43.652;24.906;2023-04-25T06:01:25;1.80;;;1.27;;
7961;SDS011;4026;43.652;24.906;2023-04-25T06:03:51;1.97;;;1.00;;
7961;SDS011;4026;43.652;24.906;2023-04-25T06:06:18;1.77;;;1.10;;
7961;SDS011;4026;43.652;24.906;2023-04-25T06:08:45;1.20;;;1.10;;
7961;SDS011;4026;43.652;24.906;2023-04-25T06:11:12;1.70;;;1.37;;
7961;SDS011;4026;43.652;24.906;2023-04-25T06:13:40;1.90;;;1.43;;
7961;SDS011;4026;43.652;24.906;2023-04-25T06:16:07;1.70;;;1.33;;
7961;SDS011;4026;43.652;24.906;2023-04-25T06:18:33;1.93;;;1.00;;
7961;SDS011;4026;43.652;24.906;2023-04-25T06:21:00;1.77;;;1.27;;
7961;SDS011;4026;43.652;24.906;2023-04-25T06:23:27;1.50;;;1.20;;
7961;SDS011;4026;43.652;24.906;2023-04-25T06:25:54;1.60;;;1.23;;
7961;SDS011;4026;43.652;24.906;2023-04-25T06:28:21;1.00;;;0.70;;
7961;SDS011;4026;43.652;24.906;2023-04-25T06:30:50;4.27;;;1.20;;
7961;SDS011;4026;43.652;24.906;2023-04-25T06:33:17;1.20;;;1.10;;
7961;SDS011;4026;43.652;24.906;2023-04-25T06:35:45;1.67;;;1.30;;
7961;SDS011;4026;43.652;24.906;2023-04-25T06:38:11;1.20;;;1.10;;
7961;SDS011;4026;43.652;24.906;2023-04-25T06:40:38;1.87;;;1.30;;
7961;SDS011;4026;43.652;24.906;2023-04-25T06:43:05;1.87;;;1.30;;
7961;SDS011;4026;43.652;24.906;2023-04-25T06:45:32;1.30;;;1.03;;
7961;SDS011;4026;43.652;24.906;2023-04-25T06:48:00;2.40;;;1.00;;
7961;SDS011;4026;43.652;24.906;2023-04-25T06:50:27;1.43;;;1.20;;
7961;SDS011;4026;43.652;24.906;2023-04-25T06:52:54;1.27;;;1.17;;
7961;SDS011;4026;43.652;24.906;2023-04-25T06:55:20;1.63;;;1.23;;
7961;SDS011;4026;43.652;24.906;2023-04-25T06:57:47;1.50;;;1.40;;
7961;SDS011;4026;43.652;24.906;2023-04-25T07:00:14;1.80;;;1.37;;
7961;SDS011;4026;43.652;24.906;2023-04-25T07:02:42;2.03;;;1.30;;
7961;SDS011;4026;43.652;24.906;2023-04-25T07:05:10;1.77;;;1.27;;
7961;SDS011;4026;43.652;24.906;2023-04-25T07:07:37;3.20;;;1.43;;
7961;SDS011;4026;43.652;24.906;2023-04-25T07:10:04;2.57;;;1.60;;
7961;SDS011;4026;43.652;24.906;2023-04-25T07:12:31;5.67;;;1.50;;
7961;SDS011;4026;43.652;24.906;2023-04-25T07:14:58;4.87;;;1.40;;
7961;SDS011;4026;43.652;24.906;2023-04-25T07:17:30;1.93;;;1.40;;
7961;SDS011;4026;43.652;24.906;2023-04-25T07:19:58;2.13;;;1.20;;
7961;SDS011;4026;43.652;24.906;2023-04-25T07:22:26;1.40;;;1.00;;
7961;SDS011;4026;43.652;24.906;2023-04-25T07:24:53;1.40;;;1.10;;
7961;SDS011;4026;43.652;24.906;2023-04-25T07:27:19;1.27;;;1.10;;
7961;SDS011;4026;43.652;24.906;2023-04-25T07:29:46;2.03;;;1.13;;
7961;SDS011;4026;43.652;24.906;2023-04-25T07:32:13;4.60;;;1.30;;
7961;SDS011;4026;43.652;24.906;2023-04-25T07:34:40;1.55;;;1.20;;
7961;SDS011;4026;43.652;24.906;2023-04-25T07:37:07;1.73;;;1.40;;
7961;SDS011;4026;43.652;24.906;2023-04-25T07:39:35;2.63;;;1.50;;
7961;SDS011;4026;43.652;24.906;2023-04-25T07:42:02;1.50;;;1.17;;
7961;SDS011;4026;43.652;24.906;2023-04-25T07:44:31;1.50;;;1.20;;
7961;SDS011;4026;43.652;24.906;2023-04-25T07:47:03;1.23;;;1.10;;
7961;SDS011;4026;43.652;24.906;2023-04-25T07:49:30;3.33;;;1.10;;
7961;SDS011;4026;43.652;24.906;2023-04-25T07:51:57;1.08;;;1.00;;
7961;SDS011;4026;43.652;24.906;2023-04-25T07:54:24;1.17;;;0.90;;
7961;SDS011;4026;43.652;24.906;2023-04-25T07:56:52;1.80;;;1.00;;
7961;SDS011;4026;43.652;24.906;2023-04-25T07:59:19;0.85;;;0.85;;
7961;SDS011;4026;43.652;24.906;2023-04-25T08:01:46;0.90;;;0.90;;
7961;SDS011;4026;43.652;24.906;2023-04-25T08:04:13;2.13;;;1.40;;
7961;SDS011;4026;43.652;24.906;2023-04-25T08:06:40;1.10;;;0.80;;
7961;SDS011;4026;43.652;24.906;2023-04-25T08:09:07;1.27;;;1.17;;
7961;SDS011;4026;43.652;24.906;2023-04-25T08:11:34;2.00;;;1.10;;
7961;SDS011;4026;43.652;24.906;2023-04-25T08:14:02;1.48;;;1.23;;
7961;SDS011;4026;43.652;24.906;2023-04-25T08:16:29;1.17;;;0.95;;
7961;SDS011;4026;43.652;24.906;2023-04-25T08:18:57;3.33;;;1.52;;
7961;SDS011;4026;43.652;24.906;2023-04-25T08:21:23;1.38;;;1.10;;
7961;SDS011;4026;43.652;24.906;2023-04-25T08:23:50;1.23;;;1.02;;
7961;SDS011;4026;43.652;24.906;2023-04-25T08:26:17;1.75;;;1.25;;
7961;SDS011;4026;43.652;24.906;2023-04-25T08:28:45;1.25;;;1.15;;
7961;SDS011;4026;43.652;24.906;2023-04-25T08:31:14;2.03;;;1.45;;
7961;SDS011;4026;43.652;24.906;2023-04-25T08:33:41;2.15;;;1.30;;
7961;SDS011;4026;43.652;24.906;2023-04-25T08:36:08;2.13;;;1.40;;
7961;SDS011;4026;43.652;24.906;2023-04-25T08:38:35;1.70;;;1.50;;
7961;SDS011;4026;43.652;24.906;2023-04-25T08:41:02;1.03;;;0.93;;
7961;SDS011;4026;43.652;24.906;2023-04-25T08:43:29;1.90;;;1.37;;
7961;SDS011;4026;43.652;24.906;2023-04-25T08:45:57;3.97;;;1.53;;
7961;SDS011;4026;43.652;24.906;2023-04-25T08:48:27;2.40;;;1.30;;
7961;SDS011;4026;43.652;24.906;2023-04-25T08:50:55;2.43;;;1.50;;
7961;SDS011;4026;43.652;24.906;2023-04-25T08:53:25;2.80;;;1.10;;
7961;SDS011;4026;43.652;24.906;2023-04-25T08:55:53;1.13;;;1.03;;
7961;SDS011;4026;43.652;24.906;2023-04-25T08:58:21;1.40;;;1.20;;
7961;SDS011;4026;43.652;24.906;2023-04-25T09:00:49;2.23;;;1.10;;
7961;SDS011;4026;43.652;24.906;2023-04-25T09:03:18;2.40;;;1.80;;
7961;SDS011;4026;43.652;24.906;2023-04-25T09:05:46;4.70;;;2.90;;
7961;SDS011;4026;43.652;24.906;2023-04-25T09:08:12;2.00;;;1.43;;
7961;SDS011;4026;43.652;24.906;2023-04-25T09:10:39;2.50;;;1.30;;
7961;SDS011;4026;43.652;24.906;2023-04-25T09:13:07;1.53;;;1.33;;
7961;SDS011;4026;43.652;24.906;2023-04-25T09:15:46;1.30;;;1.20;;
7961;SDS011;4026;43.652;24.906;2023-04-25T09:18:21;1.57;;;1.00;;
7961;SDS011;4026;43.652;24.906;2023-04-25T09:20:50;1.93;;;1.23;;
7961;SDS011;4026;43.652;24.906;2023-04-25T09:23:18;2.80;;;1.30;;
7961;SDS011;4026;43.652;24.906;2023-04-25T09:25:47;1.63;;;1.23;;
7961;SDS011;4026;43.652;24.906;2023-04-25T09:28:14;1.63;;;1.20;;
7961;SDS011;4026;43.652;24.906;2023-04-25T09:30:41;1.20;;;1.10;;
7961;SDS011;4026;43.652;24.906;2023-04-25T09:33:09;0.87;;;0.83;;
7961;SDS011;4026;43.652;24.906;2023-04-25T09:35:38;0.97;;;0.97;;
7961;SDS011;4026;43.652;24.906;2023-04-25T09:38:11;1.40;;;1.00;;
7961;SDS011;4026;43.652;24.906;2023-04-25T09:40:39;1.53;;;1.10;;
7961;SDS011;4026;43.652;24.906;2023-04-25T09:43:10;1.13;;;1.00;;
7961;SDS011;4026;43.652;24.906;2023-04-25T09:45:41;1.63;;;1.20;;
7961;SDS011;4026;43.652;24.906;2023-04-25T09:48:10;4.63;;;1.10;;
7961;SDS011;4026;43.652;24.906;2023-04-25T09:50:38;1.23;;;1.13;;
7961;SDS011;4026;43.652;24.906;2023-04-25T09:53:05;1.10;;;1.00;;
7961;SDS011;4026;43.652;24.906;2023-04-25T09:55:34;1.50;;;1.10;;
7961;SDS011;4026;43.652;24.906;2023-04-25T09:58:04;1.43;;;1.17;;
7961;SDS011;4026;43.652;24.906;2023-04-25T10:00:33;1.00;;;0.90;;
7961;SDS011;4026;43.652;24.906;2023-04-25T10:03:00;1.57;;;0.90;;
7961;SDS011;4026;43.652;24.906;2023-04-25T10:05:30;1.37;;;0.80;;
7961;SDS011;4026;43.652;24.906;2023-04-25T10:08:02;0.90;;;0.73;;
7961;SDS011;4026;43.652;24.906;2023-04-25T10:10:29;1.20;;;1.03;;
7961;SDS011;4026;43.652;24.906;2023-04-25T10:13:03;2.13;;;1.50;;
7961;SDS011;4026;43.652;24.906;2023-04-25T10:15:32;1.60;;;1.37;;
7961;SDS011;4026;43.652;24.906;2023-04-25T10:18:00;1.70;;;1.10;;
7961;SDS011;4026;43.652;24.906;2023-04-25T10:20:27;1.27;;;1.10;;
7961;SDS011;4026;43.652;24.906;2023-04-25T10:22:55;1.70;;;1.27;;
7961;SDS011;4026;43.652;24.906;2023-04-25T10:25:30;2.53;;;1.33;;
7961;SDS011;4026;43.652;24.906;2023-04-25T10:27:57;3.00;;;1.60;;
7961;SDS011;4026;43.652;24.906;2023-04-25T10:30:27;1.50;;;1.30;;
7961;SDS011;4026;43.652;24.906;2023-04-25T10:32:54;2.77;;;1.43;;
7961;SDS011;4026;43.652;24.906;2023-04-25T10:35:24;1.43;;;1.20;;
7961;SDS011;4026;43.652;24.906;2023-04-25T10:37:59;1.30;;;1.20;;
7961;SDS011;4026;43.652;24.906;2023-04-25T10:40:28;1.97;;;1.50;;
7961;SDS011;4026;43.652;24.906;2023-04-25T10:42:57;1.27;;;1.00;;
7961;SDS011;4026;43.652;24.906;2023-04-25T10:46:03;1.23;;;0.97;;
7961;SDS011;4026;43.652;24.906;2023-04-25T10:48:43;0.87;;;0.83;;
7961;SDS011;4026;43.652;24.906;2023-04-25T10:51:15;1.00;;;0.90;;
7961;SDS011;4026;43.652;24.906;2023-04-25T10:53:44;0.70;;;0.70;;
7961;SDS011;4026;43.652;24.906;2023-04-25T10:56:11;3.57;;;0.70;;
7961;SDS011;4026;43.652;24.906;2023-04-25T10:58:43;0.83;;;0.77;;
7961;SDS011;4026;43.652;24.906;2023-04-25T11:01:11;0.63;;;0.60;;
7961;SDS011;4026;43.652;24.906;2023-04-25T11:03:40;0.70;;;0.70;;
7961;SDS011;4026;43.652;24.906;2023-04-25T11:06:10;1.07;;;0.60;;
7961;SDS011;4026;43.652;24.906;2023-04-25T11:08:47;0.77;;;0.77;;
7961;SDS011;4026;43.652;24.906;2023-04-25T11:11:16;0.87;;;0.70;;
7961;SDS011;4026;43.652;24.906;2023-04-25T11:13:43;1.63;;;1.20;;
7961;SDS011;4026;43.652;24.906;2023-04-25T11:16:12;0.60;;;0.60;;
7961;SDS011;4026;43.652;24.906;2023-04-25T11:18:40;1.17;;;1.00;;
7961;SDS011;4026;43.652;24.906;2023-04-25T11:21:07;0.98;;;0.70;;
7961;SDS011;4026;43.652;24.906;2023-04-25T11:23:34;1.08;;;0.88;;
7961;SDS011;4026;43.652;24.906;2023-04-25T11:26:02;0.95;;;0.75;;
7961;SDS011;4026;43.652;24.906;2023-04-25T11:28:28;0.70;;;0.70;;
7961;SDS011;4026;43.652;24.906;2023-04-25T11:30:55;0.60;;;0.60;;
7961;SDS011;4026;43.652;24.906;2023-04-25T11:33:24;0.77;;;0.75;;
7961;SDS011;4026;43.652;24.906;2023-04-25T11:35:53;0.95;;;0.60;;
7961;SDS011;4026;43.652;24.906;2023-04-25T11:38:21;0.70;;;0.70;;
7961;SDS011;4026;43.652;24.906;2023-04-25T11:40:49;2.43;;;0.80;;
7961;SDS011;4026;43.652;24.906;2023-04-25T11:43:17;1.00;;;0.90;;
7961;SDS011;4026;43.652;24.906;2023-04-25T11:45:46;0.63;;;0.63;;
7961;SDS011;4026;43.652;24.906;2023-04-25T11:48:14;0.93;;;0.80;;
7961;SDS011;4026;43.652;24.906;2023-04-25T11:50:42;1.03;;;0.80;;
7961;SDS011;4026;43.652;24.906;2023-04-25T11:53:09;0.60;;;0.60;;
7961;SDS011;4026;43.652;24.906;2023-04-25T11:55:36;0.57;;;0.53;;
7961;SDS011;4026;43.652;24.906;2023-04-25T11:58:03;0.73;;;0.60;;
7961;SDS011;4026;43.652;24.906;2023-04-25T12:00:31;0.97;;;0.60;;
7961;SDS011;4026;43.652;24.906;2023-04-25T12:02:58;0.60;;;0.60;;
7961;SDS011;4026;43.652;24.906;2023-04-25T12:05:26;0.60;;;0.60;;
7961;SDS011;4026;43.652;24.906;2023-04-25T12:07:55;0.73;;;0.70;;
7961;SDS011;4026;43.652;24.906;2023-04-25T12:10:23;1.13;;;0.83;;
7961;SDS011;4026;43.652;24.906;2023-04-25T12:12:51;0.70;;;0.70;;
7961;SDS011;4026;43.652;24.906;2023-04-25T12:15:22;0.80;;;0.70;;
7961;SDS011;4026;43.652;24.906;2023-04-25T12:17:52;1.00;;;0.77;;
7961;SDS011;4026;43.652;24.906;2023-04-25T12:20:20;0.63;;;0.63;;
7961;SDS011;4026;43.652;24.906;2023-04-25T12:22:50;0.60;;;0.60;;
7961;SDS011;4026;43.652;24.906;2023-04-25T12:28:11;1.07;;;0.80;;
7961;SDS011;4026;43.652;24.906;2023-04-25T12:30:58;0.70;;;0.70;;
7961;SDS011;4026;43.652;24.906;2023-04-25T12:33:27;0.50;;;0.50;;
7961;SDS011;4026;43.652;24.906;2023-04-25T12:35:56;0.47;;;0.47;;
7961;SDS011;4026;43.652;24.906;2023-04-25T12:38:23;0.50;;;0.50;;
7961;SDS011;4026;43.652;24.906;2023-04-25T12:40:52;0.87;;;0.80;;
7961;SDS011;4026;43.652;24.906;2023-04-25T12:43:20;0.73;;;0.63;;
7961;SDS011;4026;43.652;24.906;2023-04-25T12:45:47;0.60;;;0.60;;
7961;SDS011;4026;43.652;24.906;2023-04-25T12:48:16;0.60;;;0.53;;
7961;SDS011;4026;43.652;24.906;2023-04-25T12:50:42;0.97;;;0.67;;
7961;SDS011;4026;43.652;24.906;2023-04-25T12:53:10;0.80;;;0.73;;
7961;SDS011;4026;43.652;24.906;2023-04-25T12:55:37;0.50;;;0.50;;
7961;SDS011;4026;43.652;24.906;2023-04-25T12:58:05;0.80;;;0.80;;
7961;SDS011;4026;43.652;24.906;2023-04-25T13:00:32;1.13;;;0.83;;
7961;SDS011;4026;43.652;24.906;2023-04-25T13:02:59;5.53;;;0.90;;
7961;SDS011;4026;43.652;24.906;2023-04-25T13:05:26;0.80;;;0.80;;
7961;SDS011;4026;43.652;24.906;2023-04-25T13:07:53;0.97;;;0.87;;
7961;SDS011;4026;43.652;24.906;2023-04-25T13:10:19;1.90;;;0.70;;
7961;SDS011;4026;43.652;24.906;2023-04-25T13:12:46;0.80;;;0.67;;
7961;SDS011;4026;43.652;24.906;2023-04-25T13:15:15;1.07;;;0.87;;
7961;SDS011;4026;43.652;24.906;2023-04-25T13:17:42;2.00;;;1.37;;
7961;SDS011;4026;43.652;24.906;2023-04-25T13:20:09;3.27;;;1.20;;
7961;SDS011;4026;43.652;24.906;2023-04-25T13:22:36;0.93;;;0.90;;
7961;SDS011;4026;43.652;24.906;2023-04-25T13:25:04;1.10;;;1.00;;
7961;SDS011;4026;43.652;24.906;2023-04-25T13:27:32;1.27;;;0.90;;
7961;SDS011;4026;43.652;24.906;2023-04-25T13:29:59;2.17;;;1.20;;
7961;SDS011;4026;43.652;24.906;2023-04-25T13:32:27;1.80;;;1.20;;
7961;SDS011;4026;43.652;24.906;2023-04-25T13:34:54;4.37;;;1.20;;
7961;SDS011;4026;43.652;24.906;2023-04-25T13:37:21;1.27;;;1.17;;
7961;SDS011;4026;43.652;24.906;2023-04-25T13:39:49;2.27;;;1.50;;
7961;SDS011;4026;43.652;24.906;2023-04-25T13:42:16;2.07;;;1.33;;
7961;SDS011;4026;43.652;24.906;2023-04-25T13:44:43;1.60;;;1.37;;
7961;SDS011;4026;43.652;24.906;2023-04-25T13:47:10;1.83;;;1.27;;
7961;SDS011;4026;43.652;24.906;2023-04-25T13:49:38;1.43;;;1.03;;
7961;SDS011;4026;43.652;24.906;2023-04-25T13:52:05;3.80;;;1.80;;
7961;SDS011;4026;43.652;24.906;2023-04-25T13:54:32;1.60;;;1.23;;
7961;SDS011;4026;43.652;24.906;2023-04-25T13:57:00;1.10;;;1.00;;
7961;SDS011;4026;43.652;24.906;2023-04-25T13:59:27;0.87;;;0.70;;
7961;SDS011;4026;43.652;24.906;2023-04-25T14:01:54;1.30;;;1.07;;
7961;SDS011;4026;43.652;24.906;2023-04-25T14:04:20;1.70;;;1.40;;
7961;SDS011;4026;43.652;24.906;2023-04-25T14:06:48;1.80;;;1.20;;
7961;SDS011;4026;43.652;24.906;2023-04-25T14:09:16;1.93;;;1.00;;
7961;SDS011;4026;43.652;24.906;2023-04-25T14:11:43;2.23;;;1.20;;
7961;SDS011;4026;43.652;24.906;2023-04-25T14:14:10;1.63;;;1.00;;
7961;SDS011;4026;43.652;24.906;2023-04-25T14:16:37;1.43;;;1.17;;
7961;SDS011;4026;43.652;24.906;2023-04-25T14:19:04;2.37;;;1.00;;
7961;SDS011;4026;43.652;24.906;2023-04-25T14:21:31;1.17;;;1.07;;
7961;SDS011;4026;43.652;24.906;2023-04-25T14:23:59;2.60;;;1.37;;
7961;SDS011;4026;43.652;24.906;2023-04-25T14:26:26;1.10;;;1.00;;
7961;SDS011;4026;43.652;24.906;2023-04-25T14:28:53;1.00;;;0.90;;
7961;SDS011;4026;43.652;24.906;2023-04-25T14:31:20;2.00;;;1.10;;
7961;SDS011;4026;43.652;24.906;2023-04-25T14:33:47;1.37;;;1.10;;
7961;SDS011;4026;43.652;24.906;2023-04-25T14:36:14;0.80;;;0.80;;
7961;SDS011;4026;43.652;24.906;2023-04-25T14:38:40;1.83;;;1.27;;
7961;SDS011;4026;43.652;24.906;2023-04-25T14:41:09;1.67;;;1.10;;
7961;SDS011;4026;43.652;24.906;2023-04-25T14:43:36;1.33;;;1.10;;
7961;SDS011;4026;43.652;24.906;2023-04-25T14:46:05;1.53;;;1.20;;
7961;SDS011;4026;43.652;24.906;2023-04-25T14:48:32;2.20;;;1.37;;
7961;SDS011;4026;43.652;24.906;2023-04-25T14:50:59;1.47;;;1.10;;
7961;SDS011;4026;43.652;24.906;2023-04-25T14:53:26;1.30;;;1.20;;
7961;SDS011;4026;43.652;24.906;2023-04-25T14:55:53;1.53;;;1.10;;
7961;SDS011;4026;43.652;24.906;2023-04-25T14:58:21;1.97;;;1.00;;
7961;SDS011;4026;43.652;24.906;2023-04-25T15:00:49;2.23;;;1.30;;
7961;SDS011;4026;43.652;24.906;2023-04-25T15:03:16;1.10;;;0.87;;
7961;SDS011;4026;43.652;24.906;2023-04-25T15:05:43;1.30;;;1.00;;